createdAt,value
2023-02-08T00:01:10.830Z,16.53
2023-02-08T00:03:40.187Z,14.57
2023-02-08T00:06:11.360Z,15.30
2023-02-08T00:08:39.836Z,16.40
2023-02-08T00:11:07.581Z,15.57
2023-02-08T00:13:35.068Z,15.73
2023-02-08T00:16:02.047Z,14.97
2023-02-08T00:18:29.249Z,16.20
2023-02-08T00:20:57.462Z,16.50
2023-02-08T00:23:25.530Z,15.73
2023-02-08T00:25:52.260Z,15.27
2023-02-08T00:28:20.176Z,14.37
2023-02-08T00:30:49.952Z,16.20
2023-02-08T00:33:16.889Z,14.70
2023-02-08T00:38:10.590Z,14.90
2023-02-08T00:40:38.158Z,15.23
2023-02-08T00:43:05.237Z,17.40
2023-02-08T00:45:33.431Z,15.50
2023-02-08T00:48:03.156Z,16.10
2023-02-08T00:50:30.039Z,15.37
2023-02-08T00:52:58.981Z,15.57
2023-02-08T00:55:25.808Z,15.37
2023-02-08T00:57:52.629Z,15.93
2023-02-08T01:00:19.619Z,15.30
2023-02-08T01:02:46.318Z,15.90
2023-02-08T01:05:13.108Z,15.63
2023-02-08T01:07:40.116Z,14.80
2023-02-08T01:10:09.555Z,16.07
2023-02-08T01:12:36.406Z,12.77
2023-02-08T01:15:03.393Z,15.67
2023-02-08T01:17:30.211Z,14.87
2023-02-08T01:19:57.075Z,16.03
2023-02-08T01:22:23.796Z,15.90
2023-02-08T01:24:53.666Z,15.53
2023-02-08T01:27:23.343Z,13.83
2023-02-08T01:29:53.732Z,13.80
2023-02-08T01:32:22.811Z,14.87
2023-02-08T01:34:49.529Z,13.60
2023-02-08T01:37:16.192Z,14.53
2023-02-08T01:39:42.931Z,14.63
2023-02-08T01:42:16.940Z,14.00
2023-02-08T01:44:48.607Z,13.27
2023-02-08T01:47:15.995Z,13.70
2023-02-08T01:49:42.890Z,14.10
2023-02-08T01:52:17.209Z,12.07
2023-02-08T01:54:45.728Z,12.37
2023-02-08T02:00:01.548Z,13.53
2023-02-08T02:02:29.847Z,13.50
2023-02-08T02:04:57.305Z,12.67
2023-02-08T02:07:28.868Z,13.73
2023-02-08T02:10:06.263Z,12.90
2023-02-08T02:12:35.764Z,12.00
2023-02-08T02:15:04.131Z,13.83
2023-02-08T02:17:31.120Z,13.40
2023-02-08T02:20:08.460Z,13.90
2023-02-08T02:22:44.611Z,13.53
2023-02-08T02:25:45.605Z,11.83
2023-02-08T02:28:39.883Z,13.33
2023-02-08T02:31:15.552Z,13.23
2023-02-08T02:33:45.623Z,12.83
2023-02-08T02:36:24.618Z,12.87
2023-02-08T02:39:03.039Z,13.53
2023-02-08T02:41:45.468Z,13.27
2023-02-08T02:44:34.741Z,12.63
2023-02-08T02:47:24.482Z,14.37
2023-02-08T02:50:01.866Z,14.60
2023-02-08T02:52:45.460Z,12.70
2023-02-08T02:55:16.984Z,14.27
2023-02-08T02:57:46.018Z,13.90
2023-02-08T03:00:20.043Z,13.60
2023-02-08T03:02:47.475Z,12.10
2023-02-08T03:05:14.765Z,12.70
2023-02-08T03:07:46.526Z,13.13
2023-02-08T03:10:22.096Z,13.23
2023-02-08T03:13:16.492Z,13.90
2023-02-08T03:15:44.540Z,12.70
2023-02-08T03:18:36.537Z,12.50
2023-02-08T03:21:25.197Z,11.93
2023-02-08T03:24:06.331Z,13.30
2023-02-08T03:26:44.566Z,12.83
2023-02-08T03:29:27.821Z,12.10
2023-02-08T03:32:04.428Z,12.23
2023-02-08T03:34:45.579Z,11.30
2023-02-08T03:37:28.453Z,11.73
2023-02-08T03:40:02.968Z,13.00
2023-02-08T03:42:33.492Z,12.73
2023-02-08T03:45:11.048Z,11.63
2023-02-08T03:47:41.239Z,12.90
2023-02-08T03:50:11.719Z,11.93
2023-02-08T03:55:23.601Z,12.83
2023-02-08T03:57:56.482Z,12.57
2023-02-08T04:00:23.935Z,11.73
2023-02-08T04:03:04.856Z,11.93
2023-02-08T04:05:31.903Z,11.90
2023-02-08T04:07:58.689Z,11.97
2023-02-08T04:10:25.448Z,11.10
2023-02-08T04:12:52.203Z,11.57
2023-02-08T04:15:19.090Z,11.10
2023-02-08T04:17:45.856Z,11.10
2023-02-08T04:20:13.173Z,11.50
2023-02-08T04:22:40.231Z,10.97
2023-02-08T04:25:08.393Z,10.10
2023-02-08T04:27:35.253Z,11.30
2023-02-08T04:30:02.563Z,11.30
2023-02-08T04:32:35.462Z,11.90
2023-02-08T04:35:02.158Z,11.90
2023-02-08T04:37:28.842Z,9.60
2023-02-08T04:39:55.568Z,11.43
2023-02-08T04:42:23.891Z,12.83
2023-02-08T04:44:50.716Z,11.07
2023-02-08T04:47:20.654Z,10.87
2023-02-08T04:49:50.798Z,11.47
2023-02-08T04:52:17.537Z,11.97
2023-02-08T04:54:47.599Z,11.00
2023-02-08T04:57:15.276Z,12.13
2023-02-08T04:59:42.215Z,11.53
2023-02-08T05:02:12.423Z,11.33
2023-02-08T05:04:39.165Z,10.80
2023-02-08T05:07:06.001Z,10.63
2023-02-08T05:09:35.587Z,11.37
2023-02-08T05:12:05.909Z,11.50
2023-02-08T05:14:34.995Z,11.40
2023-02-08T05:22:09.898Z,10.30
2023-02-08T05:24:36.750Z,11.67
2023-02-08T05:27:03.882Z,12.67
2023-02-08T05:29:33.678Z,12.87
2023-02-08T05:32:02.770Z,11.87
2023-02-08T05:34:29.483Z,11.70
2023-02-08T05:36:59.103Z,10.67
2023-02-08T05:39:29.096Z,11.63
2023-02-08T05:41:55.879Z,10.80
2023-02-08T05:44:22.729Z,12.50
2023-02-08T05:46:50.076Z,11.83
2023-02-08T05:49:16.915Z,11.60
2023-02-08T05:54:14.067Z,12.20
2023-02-08T05:56:40.956Z,13.27
2023-02-08T05:59:07.694Z,11.00
2023-02-08T06:01:35.210Z,12.20
2023-02-08T06:04:05.395Z,9.67
2023-02-08T06:06:35.805Z,12.37
2023-02-08T06:09:02.735Z,11.87
2023-02-08T06:11:29.693Z,11.33
2023-02-08T06:13:56.905Z,12.63
2023-02-08T06:16:23.903Z,11.77
2023-02-08T06:18:50.805Z,12.27
2023-02-08T06:21:17.778Z,12.40
2023-02-08T06:23:48.724Z,12.33
2023-02-08T06:26:15.520Z,12.60
2023-02-08T06:28:42.442Z,11.60
2023-02-08T06:31:09.115Z,11.80
2023-02-08T06:33:35.808Z,12.67
2023-02-08T06:36:02.609Z,12.03
2023-02-08T06:38:29.488Z,11.87
2023-02-08T06:40:56.262Z,11.13
2023-02-08T06:43:23.606Z,11.63
2023-02-08T06:45:50.321Z,11.20
2023-02-08T06:48:17.104Z,11.47
2023-02-08T06:53:10.555Z,12.90
2023-02-08T06:55:37.284Z,13.47
2023-02-08T06:58:04.082Z,13.80
2023-02-08T07:00:31.023Z,11.53
2023-02-08T07:02:59.080Z,13.57
2023-02-08T07:05:25.734Z,12.67
2023-02-08T07:07:53.792Z,12.13
2023-02-08T07:10:21.422Z,12.63
2023-02-08T07:12:48.132Z,14.40
2023-02-08T07:15:14.852Z,11.70
2023-02-08T07:17:41.589Z,12.63
2023-02-08T07:20:11.889Z,13.87
2023-02-08T07:22:39.770Z,13.87
2023-02-08T07:25:07.935Z,13.33
2023-02-08T07:27:37.999Z,14.00
2023-02-08T07:30:05.179Z,14.17
2023-02-08T07:32:34.586Z,14.63
2023-02-08T07:35:01.859Z,13.30
2023-02-08T07:37:28.591Z,12.27
2023-02-08T07:39:56.052Z,12.67
2023-02-08T07:42:23.152Z,12.67
2023-02-08T07:44:50.846Z,13.47
2023-02-08T07:47:17.667Z,13.17
2023-02-08T07:49:45.719Z,13.83
2023-02-08T07:52:12.443Z,12.90
2023-02-08T07:54:39.103Z,13.53
2023-02-08T07:57:05.736Z,13.53
2023-02-08T07:59:32.486Z,13.07
2023-02-08T08:01:59.250Z,14.43
2023-02-08T08:04:25.939Z,13.23
2023-02-08T08:06:53.908Z,13.37
2023-02-08T08:09:20.716Z,11.90
2023-02-08T08:11:47.488Z,15.30
2023-02-08T08:14:14.396Z,14.37
2023-02-08T08:16:42.640Z,14.20
2023-02-08T08:19:09.440Z,14.07
2023-02-08T08:21:36.209Z,15.80
2023-02-08T08:24:02.882Z,13.30
2023-02-08T08:26:30.158Z,15.47
2023-02-08T08:28:56.869Z,14.63
2023-02-08T08:31:23.766Z,15.03
2023-02-08T08:33:50.675Z,15.17
2023-02-08T08:36:17.401Z,14.80
2023-02-08T08:41:15.005Z,14.67
2023-02-08T08:43:41.941Z,13.93
2023-02-08T08:46:10.153Z,14.10
2023-02-08T08:48:38.489Z,13.43
2023-02-08T08:51:05.884Z,15.57
2023-02-08T08:53:33.089Z,14.27
2023-02-08T08:55:59.854Z,13.33
2023-02-08T08:58:26.528Z,14.40
2023-02-08T09:00:54.216Z,17.07
2023-02-08T09:03:20.948Z,15.10
2023-02-08T09:05:47.684Z,14.73
2023-02-08T09:08:14.583Z,15.23
2023-02-08T09:10:41.797Z,17.10
2023-02-08T09:13:09.286Z,15.13
2023-02-08T09:15:40.430Z,15.97
2023-02-08T09:18:07.536Z,15.17
2023-02-08T09:20:34.207Z,14.77
2023-02-08T09:23:00.927Z,14.97
2023-02-08T09:25:28.013Z,15.70
2023-02-08T09:27:54.761Z,14.07
2023-02-08T09:30:21.687Z,14.90
2023-02-08T09:32:48.366Z,15.40
2023-02-08T09:35:15.598Z,16.30
2023-02-08T09:37:42.496Z,15.25
2023-02-08T09:40:23.004Z,15.52
2023-02-08T09:43:19.568Z,16.88
2023-02-08T09:45:59.978Z,16.50
2023-02-08T09:48:39.291Z,13.00
2023-02-08T09:51:22.113Z,14.32
2023-02-08T09:53:55.191Z,14.32
2023-02-08T09:56:29.416Z,14.95
2023-02-08T09:58:57.535Z,14.07
2023-02-08T10:01:31.031Z,15.68
2023-02-08T10:04:22.530Z,15.32
2023-02-08T10:06:50.224Z,15.60
2023-02-08T10:09:21.056Z,15.98
2023-02-08T10:12:09.356Z,15.18
2023-02-08T10:14:45.763Z,14.65
2023-02-08T10:17:32.424Z,16.17
2023-02-08T10:20:23.775Z,16.92
2023-02-08T10:22:59.786Z,17.63
2023-02-08T10:25:39.417Z,16.58
2023-02-08T10:28:41.136Z,17.13
2023-02-08T10:31:45.738Z,16.35
2023-02-08T10:34:30.691Z,16.13
2023-02-08T10:36:57.446Z,16.02
2023-02-08T10:39:35.310Z,23.50
2023-02-08T10:42:03.304Z,21.55
2023-02-08T10:44:47.530Z,28.25
2023-02-08T10:47:36.411Z,16.65
2023-02-08T10:50:12.610Z,16.50
2023-02-08T10:52:39.599Z,15.70
2023-02-08T10:55:17.833Z,15.13
2023-02-08T10:57:46.219Z,15.93
2023-02-08T11:00:27.176Z,18.27
2023-02-08T11:02:56.593Z,16.42
2023-02-08T11:05:26.223Z,16.88
2023-02-08T11:08:23.701Z,14.80
2023-02-08T11:11:03.951Z,15.93
2023-02-08T11:13:38.576Z,15.43
2023-02-08T11:16:08.041Z,19.92
2023-02-08T11:18:45.774Z,14.77
2023-02-08T11:21:26.246Z,15.55
2023-02-08T11:23:54.739Z,14.82
2023-02-08T11:26:26.905Z,13.80
2023-02-08T11:29:10.033Z,15.05
2023-02-08T11:31:37.083Z,13.27
2023-02-08T11:34:06.315Z,15.00
2023-02-08T11:36:35.583Z,16.02
2023-02-08T11:39:15.557Z,14.90
2023-02-08T11:41:44.779Z,13.25
2023-02-08T11:44:20.960Z,13.98
2023-02-08T11:46:49.828Z,13.02
2023-02-08T11:49:23.957Z,13.05
2023-02-08T11:51:52.794Z,14.20
2023-02-08T11:54:39.460Z,13.77
2023-02-08T11:57:21.682Z,11.75
2023-02-08T11:59:50.160Z,12.68
2023-02-08T12:02:30.611Z,12.75
2023-02-08T12:04:59.497Z,12.40
2023-02-08T12:07:38.079Z,13.52
2023-02-08T12:10:07.742Z,13.05
2023-02-08T12:12:44.821Z,12.68
2023-02-08T12:15:26.523Z,12.25
2023-02-08T12:17:59.248Z,12.82
2023-02-08T12:20:37.953Z,13.23
2023-02-08T12:23:26.214Z,12.90
2023-02-08T12:26:17.689Z,12.05
2023-02-08T12:28:46.278Z,12.63
2023-02-08T12:31:42.961Z,11.88
2023-02-08T12:34:20.540Z,11.35
2023-02-08T12:37:45.764Z,12.80
2023-02-08T12:40:40.402Z,10.50
2023-02-08T12:43:25.371Z,11.00
2023-02-08T12:46:34.770Z,11.15
2023-02-08T12:49:37.000Z,11.52
2023-02-08T12:52:41.630Z,11.10
2023-02-08T12:55:29.942Z,10.95
2023-02-08T12:58:00.562Z,12.02
2023-02-08T13:00:32.502Z,11.45
2023-02-08T13:03:21.457Z,12.60
2023-02-08T13:06:01.659Z,12.20
2023-02-08T13:08:41.002Z,12.60
2023-02-08T13:11:21.346Z,12.38
2023-02-08T13:14:34.458Z,12.30
2023-02-08T13:17:17.252Z,11.07
2023-02-08T13:19:59.689Z,11.45
2023-02-08T13:22:31.562Z,11.45
2023-02-08T13:25:07.102Z,12.73
2023-02-08T13:27:34.731Z,12.77
2023-02-08T13:30:21.791Z,12.25
2023-02-08T13:32:50.896Z,12.50
2023-02-08T13:35:24.162Z,12.93
2023-02-08T13:37:59.900Z,12.65
2023-02-08T13:40:35.274Z,12.23
2023-02-08T13:43:34.962Z,11.15
2023-02-08T13:46:04.534Z,12.45
2023-02-08T13:51:33.995Z,11.52
2023-02-08T13:54:00.891Z,12.00
2023-02-08T13:59:42.113Z,11.40
2023-02-08T14:02:22.484Z,11.50
2023-02-08T14:04:52.859Z,10.90
2023-02-08T14:10:27.037Z,11.25
2023-02-08T14:13:03.191Z,10.77
2023-02-08T14:15:37.653Z,11.10
2023-02-08T14:18:16.619Z,11.48
2023-02-08T14:20:44.909Z,11.55
2023-02-08T14:23:24.693Z,10.38
2023-02-08T14:25:53.430Z,10.63
2023-02-08T14:28:28.006Z,10.60
2023-02-08T14:31:00.937Z,10.38
2023-02-08T14:33:31.213Z,9.88
2023-02-08T14:36:01.329Z,9.45
2023-02-08T14:38:45.938Z,9.63
2023-02-08T14:41:45.842Z,9.98
2023-02-08T14:47:27.793Z,8.10
2023-02-08T14:50:24.639Z,8.13
2023-02-08T14:53:07.893Z,7.88
2023-02-08T14:55:46.503Z,7.88
2023-02-08T14:58:30.168Z,8.23
2023-02-08T15:01:00.967Z,7.88
2023-02-08T15:03:31.866Z,7.95
2023-02-08T15:06:40.112Z,7.28
2023-02-08T15:09:22.062Z,7.82
2023-02-08T15:12:00.276Z,9.18
2023-02-08T15:14:28.934Z,9.82
2023-02-08T15:16:57.094Z,11.50
2023-02-08T15:19:32.135Z,10.00
2023-02-08T15:22:18.193Z,10.32
2023-02-08T15:24:45.951Z,10.35
2023-02-08T15:27:24.997Z,10.07
2023-02-08T15:29:52.411Z,9.57
2023-02-08T15:32:22.835Z,10.18
2023-02-08T15:34:59.562Z,9.77
2023-02-08T15:37:30.665Z,10.02
2023-02-08T15:39:59.109Z,9.48
2023-02-08T15:42:32.326Z,10.15
2023-02-08T15:45:00.838Z,10.98
2023-02-08T15:47:33.596Z,10.48
2023-02-08T15:50:01.321Z,9.50
2023-02-08T15:52:31.932Z,10.15
2023-02-08T15:54:58.978Z,10.20
2023-02-08T15:57:45.855Z,9.88
2023-02-08T16:00:23.886Z,9.73
2023-02-08T16:02:56.492Z,10.48
2023-02-08T16:05:26.960Z,10.07
2023-02-08T16:07:54.493Z,9.25
2023-02-08T16:10:42.955Z,9.88
2023-02-08T16:13:19.588Z,9.45
2023-02-08T16:15:51.977Z,9.32
2023-02-08T16:18:42.060Z,7.95
2023-02-08T16:21:27.037Z,8.20
2023-02-08T16:23:58.210Z,8.43
2023-02-08T16:26:35.834Z,9.60
2023-02-08T16:29:19.256Z,10.90
2023-02-08T16:31:55.986Z,9.35
2023-02-08T16:34:29.977Z,9.32
2023-02-08T16:37:07.246Z,8.63
2023-02-08T16:39:47.136Z,8.82
2023-02-08T16:42:25.335Z,8.60
2023-02-08T16:45:01.020Z,8.85
2023-02-08T16:47:38.640Z,8.43
2023-02-08T16:50:06.547Z,8.60
2023-02-08T16:52:34.182Z,8.05
2023-02-08T16:55:02.124Z,8.52
2023-02-08T17:00:35.165Z,9.95
2023-02-08T17:03:02.183Z,7.80
2023-02-08T17:05:32.187Z,9.15
2023-02-08T17:07:59.844Z,9.43
2023-02-08T17:10:30.130Z,8.82
2023-02-08T17:13:17.065Z,8.75
2023-02-08T17:15:46.431Z,8.43
2023-02-08T17:18:17.111Z,9.32
2023-02-08T17:23:11.737Z,9.52
2023-02-08T17:25:38.924Z,8.77
2023-02-08T17:28:15.094Z,8.75
2023-02-08T17:33:18.627Z,9.30
2023-02-08T17:35:47.185Z,9.75
2023-02-08T17:38:15.858Z,9.90
2023-02-08T17:43:11.858Z,10.45
2023-02-08T17:45:41.993Z,10.23
2023-02-08T17:48:16.055Z,9.45
2023-02-08T17:50:51.001Z,10.00
2023-02-08T17:53:18.693Z,9.02
2023-02-08T17:55:46.442Z,10.48
2023-02-08T17:58:13.770Z,10.77
2023-02-08T18:00:40.897Z,9.05
2023-02-08T18:03:07.786Z,8.98
2023-02-08T18:05:34.592Z,9.30
2023-02-08T18:08:01.879Z,8.75
2023-02-08T18:10:28.569Z,7.40
2023-02-08T18:12:55.440Z,11.15
2023-02-08T18:15:22.792Z,10.05
2023-02-08T18:17:56.448Z,9.35
2023-02-08T18:20:23.572Z,10.02
2023-02-08T18:22:50.530Z,9.95
2023-02-08T18:25:20.971Z,8.38
2023-02-08T18:27:50.952Z,10.10
2023-02-08T18:30:18.644Z,10.27
2023-02-08T18:32:48.335Z,9.15
2023-02-08T18:35:15.068Z,10.50
2023-02-08T18:37:41.930Z,10.13
2023-02-08T18:40:10.258Z,10.35
2023-02-08T18:42:37.399Z,10.10
2023-02-08T18:45:08.075Z,10.40
2023-02-08T18:47:40.441Z,10.77
2023-02-08T18:50:07.877Z,10.13
2023-02-08T18:52:35.186Z,10.23
2023-02-08T18:55:02.528Z,9.93
2023-02-08T18:57:29.285Z,10.45
2023-02-08T18:59:56.315Z,10.88
2023-02-08T19:02:23.725Z,9.97
2023-02-08T19:04:53.370Z,10.70
2023-02-08T19:07:20.342Z,11.20
2023-02-08T19:09:47.630Z,10.13
2023-02-08T19:12:15.866Z,11.00
2023-02-08T19:17:15.309Z,10.63
2023-02-08T19:19:42.506Z,11.23
2023-02-08T19:22:09.297Z,11.80
2023-02-08T19:24:42.049Z,11.80
2023-02-08T19:27:09.003Z,11.18
2023-02-08T19:29:36.026Z,11.53
2023-02-08T19:32:02.844Z,11.53
2023-02-08T19:34:37.655Z,11.60
2023-02-08T19:37:04.668Z,10.17
2023-02-08T19:39:31.610Z,11.30
2023-02-08T19:42:01.240Z,11.07
2023-02-08T19:44:30.494Z,10.77
2023-02-08T19:46:58.005Z,11.02
2023-02-08T19:49:28.588Z,12.27
2023-02-08T19:51:56.379Z,11.40
2023-02-08T19:54:23.332Z,11.00
2023-02-08T19:56:52.468Z,11.13
2023-02-08T19:59:26.189Z,11.30
2023-02-08T20:01:54.679Z,11.63
2023-02-08T20:04:22.402Z,10.77
2023-02-08T20:06:54.453Z,11.80
2023-02-08T20:09:22.571Z,12.07
2023-02-08T20:11:57.713Z,10.63
2023-02-08T20:14:27.021Z,11.87
2023-02-08T20:16:54.020Z,11.20
2023-02-08T20:19:21.663Z,12.20
2023-02-08T20:21:52.183Z,11.23
2023-02-08T20:24:19.057Z,11.67
2023-02-08T20:26:48.283Z,11.63
2023-02-08T20:29:15.769Z,12.33
2023-02-08T20:31:45.129Z,12.60
2023-02-08T20:34:16.595Z,12.93
2023-02-08T20:37:00.931Z,11.03
2023-02-08T20:39:35.010Z,12.70
2023-02-08T20:42:06.694Z,12.40
2023-02-08T20:44:33.669Z,13.37
2023-02-08T20:47:03.707Z,13.27
2023-02-08T20:49:33.915Z,11.70
2023-02-08T20:52:02.032Z,12.77
2023-02-08T20:54:31.995Z,13.47
2023-02-08T20:57:03.819Z,12.00
2023-02-08T21:02:24.448Z,11.30
2023-02-08T21:04:55.240Z,13.10
2023-02-08T21:07:22.702Z,11.97
2023-02-08T21:09:49.641Z,13.53
2023-02-08T21:12:18.973Z,13.43
2023-02-08T21:14:45.843Z,13.17
2023-02-08T21:17:12.799Z,13.67
2023-02-08T21:19:39.801Z,13.83
2023-02-08T21:22:07.023Z,14.47
2023-02-08T21:24:34.216Z,15.10
2023-02-08T21:27:01.556Z,16.53
2023-02-08T21:29:32.443Z,17.77
2023-02-08T21:31:59.477Z,17.20
2023-02-08T21:34:26.630Z,15.47
2023-02-08T21:36:53.607Z,15.67
2023-02-08T21:39:20.730Z,16.80
2023-02-08T21:41:48.729Z,16.67
2023-02-08T21:44:15.741Z,17.07
2023-02-08T21:46:43.016Z,17.10
2023-02-08T21:49:29.689Z,16.17
2023-02-08T21:52:24.441Z,16.60
2023-02-08T21:54:53.771Z,15.27
2023-02-08T21:57:37.991Z,15.47
2023-02-08T22:00:08.506Z,15.80
2023-02-08T22:02:35.319Z,16.87
2023-02-08T22:05:22.462Z,15.77
2023-02-08T22:07:55.158Z,15.77
2023-02-08T22:10:24.899Z,14.20
2023-02-08T22:12:56.288Z,16.27
2023-02-08T22:15:25.501Z,14.60
2023-02-08T22:17:54.117Z,14.97
2023-02-08T22:20:21.876Z,15.40
2023-02-08T22:22:53.091Z,14.53
2023-02-08T22:25:21.547Z,14.40
2023-02-08T22:27:48.599Z,14.20
2023-02-08T22:30:17.718Z,16.23
2023-02-08T22:32:46.167Z,15.63
2023-02-08T22:35:14.714Z,15.47
2023-02-08T22:37:41.688Z,13.75
2023-02-08T22:40:12.861Z,16.13
2023-02-08T22:42:40.869Z,15.30
2023-02-08T22:45:08.871Z,14.97
2023-02-08T22:47:39.253Z,13.90
2023-02-08T22:50:09.852Z,15.47
2023-02-08T22:52:36.628Z,16.23
2023-02-08T22:55:04.356Z,17.20
2023-02-08T22:57:32.577Z,16.23
2023-02-08T23:00:02.478Z,14.10
2023-02-08T23:02:29.241Z,16.07
2023-02-08T23:04:55.980Z,15.57
2023-02-08T23:07:23.266Z,13.83
2023-02-08T23:10:00.526Z,15.63
2023-02-08T23:12:27.272Z,14.20
2023-02-08T23:14:54.134Z,15.83
2023-02-08T23:17:20.860Z,15.03
2023-02-08T23:19:48.013Z,15.47
2023-02-08T23:22:14.763Z,15.67
2023-02-08T23:24:41.487Z,15.40
2023-02-08T23:27:08.284Z,16.73
2023-02-08T23:29:35.015Z,16.20
2023-02-08T23:32:05.334Z,15.63
2023-02-08T23:34:34.366Z,16.07
2023-02-08T23:37:01.222Z,14.43
2023-02-08T23:39:34.167Z,14.70
2023-02-08T23:42:01.065Z,15.83
2023-02-08T23:44:27.956Z,14.90
2023-02-08T23:46:55.115Z,15.97
2023-02-08T23:49:21.963Z,14.93
2023-02-08T23:51:48.729Z,16.97
2023-02-08T23:54:15.611Z,14.63
2023-02-08T23:56:42.685Z,15.60
2023-02-08T23:59:11.344Z,15.57
